createdAt,value
2023-01-23T00:02:46.204Z,58.12
2023-01-23T00:07:49.113Z,58.08
2023-01-23T00:12:53.369Z,58.11
2023-01-23T00:17:58.149Z,58.12
2023-01-23T00:23:00.925Z,58.18
2023-01-23T00:28:04.198Z,58.09
2023-01-23T00:33:10.379Z,58.05
2023-01-23T00:38:13.366Z,58.23
2023-01-23T00:43:16.127Z,58.11
2023-01-23T00:48:20.295Z,58.16
2023-01-23T00:53:23.314Z,58.14
2023-01-23T00:58:26.579Z,57.97
2023-01-23T01:03:31.684Z,58.17
2023-01-23T01:08:34.694Z,58.15
2023-01-23T01:13:37.823Z,58.16
2023-01-23T01:18:42.140Z,58.05
2023-01-23T01:23:45.003Z,57.94
2023-01-23T01:28:49.152Z,58.02
2023-01-23T01:33:53.292Z,58.22
2023-01-23T01:38:56.127Z,58.08
2023-01-23T01:44:00.986Z,58.09
2023-01-23T01:49:12.290Z,58.23
2023-01-23T01:54:21.216Z,58.00
2023-01-23T01:59:29.054Z,57.98
2023-01-23T02:04:33.787Z,58.05
2023-01-23T02:09:36.708Z,58.06
2023-01-23T02:14:39.697Z,58.00
2023-01-23T02:19:51.935Z,58.06
2023-01-23T02:25:04.990Z,58.22
2023-01-23T02:30:10.964Z,58.28
2023-01-23T02:35:22.662Z,58.28
2023-01-23T02:40:32.663Z,58.31
2023-01-23T02:45:38.832Z,58.27
2023-01-23T02:50:46.426Z,58.45
2023-01-23T02:55:49.310Z,58.29
2023-01-23T03:00:56.581Z,58.44
2023-01-23T03:06:03.138Z,58.19
2023-01-23T03:11:06.475Z,58.19
2023-01-23T03:16:10.632Z,57.98
2023-01-23T03:21:14.174Z,57.95
2023-01-23T03:26:17.966Z,58.18
2023-01-23T03:31:23.446Z,58.41
2023-01-23T03:36:26.291Z,59.00
2023-01-23T03:41:29.892Z,59.28
2023-01-23T03:46:39.575Z,59.73
2023-01-23T03:51:42.586Z,60.26
2023-01-23T03:56:46.074Z,60.56
2023-01-23T04:02:07.636Z,60.87
2023-01-23T04:07:10.517Z,61.18
2023-01-23T04:12:15.808Z,61.51
2023-01-23T04:17:24.429Z,61.55
2023-01-23T04:22:27.813Z,61.78
2023-01-23T04:27:31.145Z,60.55
2023-01-23T04:32:35.575Z,59.81
2023-01-23T04:37:38.859Z,59.96
2023-01-23T04:42:42.631Z,60.27
2023-01-23T04:48:10.157Z,59.95
2023-01-23T04:53:14.889Z,59.75
2023-01-23T04:58:19.940Z,60.00
2023-01-23T05:03:24.360Z,60.23
2023-01-23T05:08:28.179Z,60.58
2023-01-23T05:13:44.617Z,60.64
2023-01-23T05:18:50.285Z,60.99
2023-01-23T05:23:53.203Z,61.32
2023-01-23T05:28:57.536Z,61.37
2023-01-23T05:34:02.849Z,61.57
2023-01-23T05:39:06.696Z,61.72
2023-01-23T05:44:09.505Z,61.78
2023-01-23T05:49:24.765Z,62.11
2023-01-23T05:54:28.224Z,62.24
2023-01-23T05:59:31.445Z,62.35
2023-01-23T06:05:08.611Z,62.55
2023-01-23T06:10:31.524Z,62.57
2023-01-23T06:15:34.488Z,62.80
2023-01-23T06:20:43.197Z,62.69
2023-01-23T06:25:46.439Z,63.01
2023-01-23T06:30:49.844Z,62.92
2023-01-23T06:36:05.533Z,63.05
2023-01-23T06:41:09.963Z,62.96
2023-01-23T06:46:15.918Z,63.22
2023-01-23T06:51:20.256Z,63.08
2023-01-23T06:56:24.139Z,63.34
2023-01-23T07:01:28.997Z,63.36
2023-01-23T07:06:51.093Z,63.46
2023-01-23T07:11:55.752Z,63.52
2023-01-23T07:16:58.756Z,63.64
2023-01-23T07:22:03.512Z,63.65
2023-01-23T07:27:06.403Z,63.70
2023-01-23T07:32:11.158Z,63.76
2023-01-23T07:37:15.635Z,62.92
2023-01-23T07:42:18.491Z,61.99
2023-01-23T07:47:21.255Z,53.58
2023-01-23T07:52:25.510Z,53.37
2023-01-23T07:57:28.242Z,51.11
2023-01-23T08:02:30.990Z,50.80
2023-01-23T08:07:35.103Z,50.27
2023-01-23T08:12:37.873Z,50.36
2023-01-23T08:17:40.613Z,51.21
2023-01-23T08:22:44.988Z,51.98
2023-01-23T08:27:47.871Z,52.25
2023-01-23T08:32:50.632Z,52.66
2023-01-23T08:37:54.715Z,53.20
2023-01-23T08:42:57.586Z,53.66
2023-01-23T08:48:00.365Z,54.33
2023-01-23T08:53:04.478Z,55.12
2023-01-23T08:58:08.568Z,55.83
2023-01-23T09:03:11.663Z,56.25
2023-01-23T09:08:16.000Z,56.70
2023-01-23T09:13:19.649Z,57.19
2023-01-23T09:18:24.820Z,57.62
2023-01-23T09:23:28.968Z,58.02
2023-01-23T09:28:31.714Z,58.43
2023-01-23T09:33:34.560Z,58.82
2023-01-23T09:38:39.101Z,58.88
2023-01-23T09:43:49.196Z,59.28
2023-01-23T09:48:58.402Z,59.79
2023-01-23T09:54:16.342Z,59.57
2023-01-23T09:59:29.660Z,59.45
2023-01-23T10:04:33.272Z,59.69
2023-01-23T10:09:52.916Z,59.87
2023-01-23T10:15:09.715Z,59.79
2023-01-23T10:20:30.281Z,59.79
2023-01-23T10:25:40.928Z,60.09
2023-01-23T10:30:48.818Z,59.98
2023-01-23T10:35:57.135Z,60.08
2023-01-23T10:41:21.191Z,60.14
2023-01-23T10:46:32.156Z,60.12
2023-01-23T10:51:46.624Z,59.88
2023-01-23T10:56:55.741Z,60.19
2023-01-23T11:02:01.839Z,60.37
2023-01-23T11:07:08.429Z,60.32
2023-01-23T11:12:18.278Z,60.52
2023-01-23T11:17:23.975Z,60.54
2023-01-23T11:22:32.506Z,60.55
2023-01-23T11:27:36.614Z,60.60
2023-01-23T11:32:47.672Z,60.63
2023-01-23T11:37:50.490Z,60.81
2023-01-23T11:42:55.700Z,60.80
2023-01-23T11:48:12.605Z,60.88
2023-01-23T11:53:30.650Z,60.90
2023-01-23T11:59:12.723Z,60.84
2023-01-23T12:04:36.706Z,60.67
2023-01-23T12:09:47.555Z,61.11
2023-01-23T12:15:03.046Z,61.06
2023-01-23T12:20:36.813Z,60.94
2023-01-23T12:25:41.661Z,61.27
2023-01-23T12:30:57.227Z,61.17
2023-01-23T12:36:21.240Z,60.90
2023-01-23T12:41:36.339Z,61.21
2023-01-23T12:46:44.044Z,61.30
2023-01-23T12:51:54.837Z,49.51
2023-01-23T12:57:00.377Z,49.98
2023-01-23T13:02:12.313Z,50.91
2023-01-23T13:07:37.796Z,50.10
2023-01-23T13:12:41.197Z,50.39
2023-01-23T13:17:48.727Z,50.69
2023-01-23T13:22:53.067Z,51.07
2023-01-23T13:27:58.796Z,51.73
2023-01-23T13:33:20.010Z,52.15
2023-01-23T13:38:40.404Z,52.47
2023-01-23T13:43:44.754Z,53.04
2023-01-23T14:21:47.397Z,55.91
2023-01-23T14:26:53.230Z,56.78
2023-01-23T14:31:56.306Z,57.14
2023-01-23T14:37:03.907Z,57.44
2023-01-23T14:42:16.525Z,57.67
2023-01-23T14:47:34.023Z,58.09
2023-01-23T14:52:37.415Z,58.25
2023-01-23T14:57:42.144Z,58.28
2023-01-23T15:02:46.528Z,58.33
2023-01-23T15:07:54.744Z,58.37
2023-01-23T15:13:02.455Z,58.74
2023-01-23T15:18:18.950Z,58.97
2023-01-23T15:23:28.140Z,59.30
2023-01-23T15:28:38.889Z,59.02
2023-01-23T15:33:43.140Z,59.13
2023-01-23T15:38:47.711Z,59.32
2023-01-23T15:43:52.217Z,59.12
2023-01-23T15:48:55.071Z,59.32
2023-01-23T15:53:57.946Z,59.26
2023-01-23T15:59:02.791Z,59.17
2023-01-23T16:04:05.820Z,59.59
2023-01-23T16:09:14.596Z,59.51
2023-01-23T16:14:19.867Z,59.65
2023-01-23T16:19:22.705Z,59.76
2023-01-23T16:24:25.714Z,59.65
2023-01-23T16:29:32.219Z,59.93
2023-01-23T16:34:35.381Z,59.90
2023-01-23T16:39:38.669Z,59.98
2023-01-23T16:44:42.730Z,59.64
2023-01-23T16:49:54.136Z,59.14
2023-01-23T16:54:57.930Z,59.14
2023-01-23T17:00:03.705Z,58.68
2023-01-23T17:05:07.233Z,58.84
2023-01-23T17:10:15.433Z,59.12
2023-01-23T17:15:23.398Z,59.95
2023-01-23T17:20:28.507Z,60.43
2023-01-23T17:25:31.965Z,60.24
2023-01-23T17:30:36.332Z,60.25
2023-01-23T17:35:39.094Z,60.01
2023-01-23T17:40:42.111Z,59.81
2023-01-23T17:45:49.632Z,59.64
2023-01-23T17:50:52.478Z,59.60
2023-01-23T17:55:55.195Z,59.28
2023-01-23T18:01:00.273Z,59.32
2023-01-23T18:06:03.117Z,59.14
2023-01-23T18:11:06.270Z,59.06
2023-01-23T18:16:15.213Z,58.99
2023-01-23T18:21:18.417Z,58.94
2023-01-23T18:26:38.876Z,58.92
2023-01-23T18:31:54.884Z,58.70
2023-01-23T18:37:07.772Z,58.67
2023-01-23T18:42:22.795Z,58.59
2023-01-23T18:47:27.523Z,58.37
2023-01-23T18:52:42.508Z,58.27
2023-01-23T18:57:58.540Z,58.22
2023-01-23T19:03:13.388Z,58.33
2023-01-23T19:08:30.796Z,58.07
2023-01-23T19:13:43.697Z,58.00
2023-01-23T19:18:49.876Z,58.19
2023-01-23T19:23:58.096Z,58.11
2023-01-23T19:29:19.140Z,57.90
2023-01-23T19:34:24.375Z,58.21
2023-01-23T19:39:27.160Z,58.16
2023-01-23T19:44:30.698Z,57.99
2023-01-23T19:49:34.830Z,58.02
2023-01-23T19:54:37.681Z,58.09
2023-01-23T19:59:40.559Z,58.10
2023-01-23T20:04:44.729Z,58.19
2023-01-23T20:09:47.523Z,58.31
2023-01-23T20:14:50.418Z,57.95
2023-01-23T20:19:54.649Z,57.92
2023-01-23T20:24:57.408Z,58.13
2023-01-23T20:30:00.321Z,57.88
2023-01-23T20:35:04.773Z,57.96
2023-01-23T20:40:09.506Z,58.45
2023-01-23T20:45:12.388Z,57.91
2023-01-23T20:50:17.009Z,57.69
2023-01-23T20:55:20.145Z,57.44
2023-01-23T21:00:23.399Z,57.29
2023-01-23T21:05:27.691Z,57.16
2023-01-23T21:10:30.692Z,56.77
2023-01-23T21:15:33.520Z,56.53
2023-01-23T21:20:39.381Z,56.25
2023-01-23T21:25:42.963Z,57.58
2023-01-23T21:30:45.797Z,57.60
2023-01-23T21:35:50.820Z,57.48
2023-01-23T21:40:54.518Z,57.66
2023-01-23T21:45:57.979Z,57.57
2023-01-23T21:51:11.144Z,57.95
2023-01-23T21:56:15.875Z,57.86
2023-01-23T22:01:33.384Z,58.08
2023-01-23T22:06:39.669Z,58.14
2023-01-23T22:11:42.668Z,57.88
2023-01-23T22:16:48.909Z,57.94
2023-01-23T22:21:54.187Z,57.79
2023-01-23T22:26:57.008Z,57.77
2023-01-23T22:31:59.978Z,57.63
2023-01-23T22:37:04.379Z,57.58
2023-01-23T22:42:07.231Z,57.43
2023-01-23T22:47:10.077Z,57.78
2023-01-23T22:52:14.986Z,57.79
2023-01-23T22:57:17.905Z,57.82
2023-01-23T23:02:20.642Z,57.96
2023-01-23T23:07:24.770Z,58.05
2023-01-23T23:12:28.613Z,58.09
2023-01-23T23:17:31.461Z,58.16
2023-01-23T23:22:35.621Z,58.08
2023-01-23T23:27:39.048Z,58.09
2023-01-23T23:32:41.787Z,58.23
2023-01-23T23:37:45.947Z,58.12
2023-01-23T23:42:48.762Z,58.45
2023-01-23T23:47:51.541Z,58.32
2023-01-23T23:52:55.742Z,58.29
2023-01-23T23:58:00.177Z,58.39
